Time;durP1;ratioP1;P1;durP2;ratioP2;P2;SDS_P1;SDS_P2;PMS_P1;PMS_P2;Temp;Humidity;BMP_temperature;BMP_pressure;BME280_temperature;BME280_humidity;BME280_pressure;Samples;Min_cycle;Max_cycle;Signal;HPM_P1;HPM_P2
2022/01/28 00:00:06;;;;;;;1.75;1.15;;;2.10;99.90;;;;;;2098334;28;20165;-70
2022/01/28 00:01:08;;;;;;;2.15;1.20;;;2.00;99.90;;;;;;2096972;28;20192;-69
2022/01/28 00:03:22;;;;;;;0.98;0.90;;;2.00;99.90;;;;;;2106056;28;20175;-71
2022/01/28 00:04:23;;;;;;;1.60;1.20;;;2.10;99.90;;;;;;2104502;28;20179;-70
2022/01/28 00:05:24;;;;;;;1.80;1.20;;;2.10;99.90;;;;;;2092882;28;20185;-71
2022/01/28 00:06:24;;;;;;;2.03;1.10;;;2.00;99.90;;;;;;2087245;28;20558;-70
2022/01/28 00:07:25;;;;;;;2.73;0.97;;;2.00;99.90;;;;;;2104091;28;20182;-70
2022/01/28 00:08:26;;;;;;;1.97;1.20;;;2.00;99.90;;;;;;2098664;28;20185;-70
2022/01/28 00:09:26;;;;;;;0.80;0.80;;;2.00;99.90;;;;;;2087302;28;20179;-70
2022/01/28 00:10:28;;;;;;;1.17;0.80;;;2.10;99.90;;;;;;2097404;28;20206;-70
2022/01/28 00:11:28;;;;;;;1.75;1.10;;;2.10;99.90;;;;;;2100508;28;20219;-70
2022/01/28 00:12:30;;;;;;;1.80;1.03;;;2.10;99.90;;;;;;2103633;28;20675;-70
2022/01/28 00:13:39;;;;;;;1.55;1.00;;;2.20;99.90;;;;;;2080597;28;20181;-70
2022/01/28 00:17:15;;;;;;;1.97;1.20;;;2.20;99.90;;;;;;2102636;28;20237;-70
2022/01/28 00:36:29;;;;;;;1.35;1.15;;;2.30;99.90;;;;;;2081239;28;20618;-70
2022/01/28 00:38:13;;;;;;;3.35;2.33;;;2.20;99.90;;;;;;2097989;28;20175;-70
2022/01/28 00:39:14;;;;;;;4.22;2.65;;;2.10;99.90;;;;;;2097115;28;20176;-70
2022/01/28 00:40:15;;;;;;;5.00;2.80;;;2.10;99.90;;;;;;2088789;28;20563;-70
2022/01/28 00:41:16;;;;;;;3.80;2.47;;;2.00;99.90;;;;;;2089121;28;20170;-70
2022/01/28 00:42:17;;;;;;;5.27;3.10;;;2.00;99.90;;;;;;2097224;28;20679;-70
2022/01/28 00:43:17;;;;;;;4.60;3.13;;;1.90;99.90;;;;;;2098010;28;20272;-70
2022/01/28 00:44:18;;;;;;;6.07;3.40;;;2.00;99.90;;;;;;2097058;28;20641;-69
2022/01/28 00:45:19;;;;;;;7.23;3.27;;;2.00;99.90;;;;;;2097186;28;20226;-70
2022/01/28 00:46:20;;;;;;;5.20;3.30;;;2.00;99.90;;;;;;2097347;28;20207;-70
2022/01/28 00:47:20;;;;;;;22.43;4.37;;;1.90;99.90;;;;;;2097139;28;20426;-70
2022/01/28 00:48:21;;;;;;;6.97;3.50;;;1.90;99.90;;;;;;2097206;28;20675;-70
2022/01/28 00:49:22;;;;;;;7.03;3.40;;;1.80;99.90;;;;;;2088836;28;20242;-70
2022/01/28 00:50:23;;;;;;;6.73;4.00;;;1.80;99.90;;;;;;2088963;28;20208;-69
2022/01/28 00:51:24;;;;;;;6.13;3.40;;;1.80;99.90;;;;;;2089002;28;20177;-70
2022/01/28 00:52:26;;;;;;;5.60;3.40;;;1.90;99.90;;;;;;2088947;28;20180;-70
2022/01/28 00:53:26;;;;;;;5.85;3.70;;;2.00;99.90;;;;;;2097227;28;20172;-70
2022/01/28 00:54:27;;;;;;;4.63;2.90;;;2.00;99.90;;;;;;2097712;28;20176;-70
2022/01/28 00:55:28;;;;;;;5.73;3.40;;;1.90;99.90;;;;;;2097831;28;20234;-69
2022/01/28 00:56:28;;;;;;;5.03;3.43;;;1.90;99.90;;;;;;2097085;28;20180;-70
2022/01/28 00:57:29;;;;;;;6.37;3.77;;;2.00;99.90;;;;;;2088729;28;20208;-70
2022/01/28 00:58:30;;;;;;;5.40;3.43;;;2.00;99.90;;;;;;2097127;28;20205;-70
2022/01/28 00:59:30;;;;;;;6.10;3.57;;;2.10;99.90;;;;;;2097690;28;20172;-70
2022/01/28 01:00:31;;;;;;;5.53;3.60;;;2.00;99.90;;;;;;2097198;28;20199;-70
2022/01/28 01:01:32;;;;;;;6.67;3.60;;;1.90;99.90;;;;;;2097150;28;20259;-70
2022/01/28 01:02:32;;;;;;;5.23;3.20;;;1.80;99.90;;;;;;2097789;28;20526;-69
2022/01/28 01:03:33;;;;;;;5.33;3.03;;;1.80;99.90;;;;;;2097002;28;20180;-70
2022/01/28 01:04:34;;;;;;;4.80;3.03;;;1.80;99.90;;;;;;2096933;28;20189;-71
2022/01/28 01:05:34;;;;;;;4.73;3.10;;;1.80;99.90;;;;;;2097662;28;20204;-69
2022/01/28 01:06:35;;;;;;;6.23;3.47;;;1.80;99.90;;;;;;2097054;28;20204;-70
2022/01/28 01:07:37;;;;;;;5.93;3.77;;;1.80;99.90;;;;;;2088715;28;20203;-71
2022/01/28 01:08:37;;;;;;;6.28;3.83;;;1.90;99.90;;;;;;2088724;28;20523;-69
2022/01/28 01:09:38;;;;;;;7.00;3.80;;;1.90;99.90;;;;;;2088626;28;20193;-70
2022/01/28 01:10:39;;;;;;;5.53;3.30;;;2.00;99.90;;;;;;2088737;28;20207;-70
2022/01/28 01:11:41;;;;;;;6.10;3.40;;;2.10;99.90;;;;;;2097043;28;20472;-70
2022/01/28 01:12:46;;;;;;;7.00;3.67;;;2.00;99.90;;;;;;2096942;28;20179;-70
2022/01/28 01:13:49;;;;;;;4.25;3.38;;;1.90;99.90;;;;;;2096117;28;20188;-71
2022/01/28 01:14:50;;;;;;;6.35;3.45;;;1.90;99.90;;;;;;2105167;28;20183;-70
2022/01/28 01:15:56;;;;;;;7.15;3.95;;;2.00;99.90;;;;;;2102914;28;20221;-70
2022/01/28 01:18:24;;;;;;;6.07;3.45;;;1.90;99.90;;;;;;2094748;28;20184;-70
2022/01/28 01:19:28;;;;;;;7.03;3.20;;;1.90;99.90;;;;;;2096739;28;20180;-71
2022/01/28 01:21:36;;;;;;;5.67;3.50;;;2.00;99.90;;;;;;2106189;28;20191;-69
2022/01/28 01:22:39;;;;;;;6.05;3.75;;;1.90;99.90;;;;;;2105947;28;20183;-70
2022/01/28 01:23:49;;;;;;;5.35;3.40;;;1.90;99.90;;;;;;2105262;28;20316;-70
2022/01/28 01:24:52;;;;;;;6.70;4.05;;;2.00;99.90;;;;;;2105119;28;20793;-70
2022/01/28 01:26:06;;;;;;;7.55;3.97;;;1.90;99.90;;;;;;2105382;28;20184;-70
2022/01/28 01:27:07;;;;;;;6.80;3.67;;;1.90;99.90;;;;;;2105952;28;20653;-70
2022/01/28 01:28:10;;;;;;;7.93;3.43;;;1.90;99.90;;;;;;2105238;28;20194;-69
2022/01/28 01:29:13;;;;;;;7.32;3.28;;;2.00;99.90;;;;;;2097067;28;20211;-70
2022/01/28 01:30:17;;;;;;;6.38;3.40;;;2.00;99.90;;;;;;2105206;28;20240;-69
2022/01/28 01:31:19;;;;;;;9.25;4.30;;;2.00;99.90;;;;;;2096810;28;20167;-70
2022/01/28 01:32:20;;;;;;;4.68;3.50;;;2.00;99.90;;;;;;2097293;28;20190;-69
2022/01/28 01:33:21;;;;;;;5.32;3.50;;;2.10;99.90;;;;;;2096858;28;20187;-71
2022/01/28 01:34:23;;;;;;;5.55;3.88;;;2.10;99.90;;;;;;2104896;28;20194;-70
2022/01/28 01:35:23;;;;;;;6.22;3.72;;;2.00;99.90;;;;;;2105067;28;20199;-70
2022/01/28 01:36:24;;;;;;;5.23;3.30;;;2.10;99.90;;;;;;2105213;28;20616;-70
2022/01/28 01:37:25;;;;;;;5.20;3.77;;;2.10;99.90;;;;;;2105723;28;20206;-71
2022/01/28 01:38:28;;;;;;;6.50;4.20;;;2.10;99.90;;;;;;2105220;28;20182;-70
2022/01/28 01:39:33;;;;;;;5.03;3.58;;;2.10;99.90;;;;;;2088580;28;20185;-71
2022/01/28 01:40:46;;;;;;;5.55;3.35;;;2.10;99.90;;;;;;2097604;28;20291;-70
2022/01/28 01:42:07;;;;;;;7.28;3.78;;;2.20;99.90;;;;;;2105237;28;20171;-70
2022/01/28 01:43:19;;;;;;;6.80;3.20;;;2.00;99.90;;;;;;2105478;28;20156;-70
2022/01/28 01:52:55;;;;;;;6.60;3.58;;;2.00;99.90;;;;;;2105834;28;20163;-69
2022/01/28 01:53:59;;;;;;;5.97;3.97;;;1.90;99.90;;;;;;2104993;28;20643;-70
2022/01/28 01:55:00;;;;;;;8.75;4.47;;;2.00;99.90;;;;;;2097014;28;20179;-70
2022/01/28 01:56:00;;;;;;;8.43;4.63;;;2.00;99.90;;;;;;2096544;28;20195;-70
2022/01/28 01:57:02;;;;;;;5.23;3.47;;;2.00;99.90;;;;;;2105005;28;20212;-70
2022/01/28 01:58:03;;;;;;;6.15;3.72;;;2.10;99.90;;;;;;2105041;28;20290;-70
2022/01/28 01:59:05;;;;;;;5.70;2.57;;;2.10;99.90;;;;;;2104954;28;20205;-70
2022/01/28 02:00:08;;;;;;;5.25;2.60;;;2.00;99.90;;;;;;2088133;28;20240;-70
2022/01/28 02:01:08;;;;;;;6.15;3.30;;;2.00;99.90;;;;;;2089346;28;20242;-70
2022/01/28 02:02:10;;;;;;;6.33;3.00;;;2.00;99.90;;;;;;2105091;28;20609;-70
2022/01/28 02:03:11;;;;;;;5.03;3.30;;;2.00;99.90;;;;;;2105073;28;20179;-70
2022/01/28 02:04:12;;;;;;;4.33;2.83;;;2.00;99.90;;;;;;2104951;28;20667;-69
2022/01/28 02:05:13;;;;;;;5.97;3.37;;;2.00;99.90;;;;;;2105590;28;20194;-69
2022/01/28 02:06:22;;;;;;;4.27;3.17;;;2.00;99.90;;;;;;2105693;28;20591;-70
2022/01/28 02:07:23;;;;;;;5.10;3.30;;;2.00;99.90;;;;;;2096651;28;20179;-69
2022/01/28 02:08:27;;;;;;;4.72;3.45;;;1.90;99.90;;;;;;2088321;28;20193;-71
2022/01/28 02:09:27;;;;;;;4.85;3.38;;;1.90;99.90;;;;;;2097021;28;20171;-70
2022/01/28 02:10:28;;;;;;;6.13;3.70;;;1.80;99.90;;;;;;2096542;28;20204;-70
2022/01/28 02:11:29;;;;;;;5.30;3.40;;;1.70;99.90;;;;;;2105145;28;20714;-70
2022/01/28 02:12:50;;;;;;;6.47;4.20;;;1.60;99.90;;;;;;2104734;28;20620;-69
2022/01/28 02:13:52;;;;;;;5.40;3.60;;;1.60;99.90;;;;;;2099511;28;20167;-70
2022/01/28 02:14:52;;;;;;;6.50;4.15;;;1.70;99.90;;;;;;2096656;28;20657;-70
2022/01/28 02:15:55;;;;;;;7.53;4.20;;;1.70;99.90;;;;;;2104966;28;20267;-69
2022/01/28 02:16:56;;;;;;;7.68;4.60;;;1.70;99.90;;;;;;2105464;28;20639;-70
2022/01/28 02:17:59;;;;;;;7.43;4.57;;;1.80;99.90;;;;;;2105488;28;20214;-70
2022/01/28 02:19:01;;;;;;;8.05;4.80;;;1.70;99.90;;;;;;2105541;28;20176;-70
2022/01/28 02:20:02;;;;;;;10.27;5.72;;;1.70;99.90;;;;;;2099174;28;20194;-69
2022/01/28 02:21:09;;;;;;;7.50;5.13;;;1.70;99.90;;;;;;2088299;28;20224;-70
2022/01/28 02:22:10;;;;;;;7.20;4.90;;;1.70;99.90;;;;;;2096785;28;20171;-70
2022/01/28 02:23:11;;;;;;;8.20;5.20;;;1.70;99.90;;;;;;2096615;28;20181;-70
2022/01/28 02:24:14;;;;;;;8.95;5.00;;;1.70;99.90;;;;;;2096582;28;20185;-69
2022/01/28 02:25:27;;;;;;;13.50;5.60;;;1.80;99.90;;;;;;2096706;28;20172;-69
2022/01/28 02:26:29;;;;;;;11.40;5.50;;;1.80;99.90;;;;;;2096434;28;20599;-69
2022/01/28 02:27:30;;;;;;;7.78;4.63;;;1.80;99.90;;;;;;2088678;28;20195;-69
2022/01/28 02:28:36;;;;;;;7.60;4.45;;;1.90;99.90;;;;;;2096539;28;20191;-70
2022/01/28 02:29:37;;;;;;;8.85;4.82;;;1.90;99.90;;;;;;2089070;28;20547;-69
2022/01/28 02:30:38;;;;;;;7.05;4.60;;;1.90;99.90;;;;;;2088993;28;20199;-69
2022/01/28 02:31:40;;;;;;;6.27;3.97;;;1.90;99.90;;;;;;2096805;28;20667;-70
2022/01/28 02:32:42;;;;;;;7.13;5.25;;;1.80;99.90;;;;;;2097289;28;20226;-70
2022/01/28 02:33:43;;;;;;;7.70;4.50;;;1.80;99.90;;;;;;2097365;28;20195;-69
2022/01/28 02:34:44;;;;;;;8.43;4.73;;;1.80;99.90;;;;;;2096572;28;20266;-69
2022/01/28 02:35:47;;;;;;;7.07;4.20;;;1.80;99.90;;;;;;2096656;28;20614;-69
2022/01/28 02:36:47;;;;;;;8.80;4.20;;;1.80;99.90;;;;;;2096573;28;20179;-70
2022/01/28 02:37:48;;;;;;;6.85;4.40;;;1.90;99.90;;;;;;2096750;28;20270;-71
2022/01/28 02:38:49;;;;;;;6.73;4.27;;;1.90;99.90;;;;;;2097171;28;20718;-69
2022/01/28 02:39:49;;;;;;;8.70;4.90;;;1.90;99.90;;;;;;2097178;28;20172;-70
2022/01/28 02:41:01;;;;;;;7.47;4.53;;;2.10;99.90;;;;;;2097186;28;20204;-69
2022/01/28 02:42:26;;;;;;;8.07;4.88;;;2.10;99.90;;;;;;2097202;28;20191;-69
2022/01/28 02:43:56;;;;;;;9.75;4.20;;;1.90;99.90;;;;;;2095894;28;20311;-69
2022/01/28 02:44:58;;;;;;;10.15;4.85;;;1.70;99.90;;;;;;2103895;28;20834;-70
2022/01/28 02:46:12;;;;;;;8.10;4.90;;;1.80;99.90;;;;;;2096353;28;20194;-69
2022/01/28 02:47:16;;;;;;;12.07;5.43;;;1.80;99.90;;;;;;2090044;28;20675;-69
2022/01/28 02:48:29;;;;;;;13.57;6.35;;;1.70;99.90;;;;;;2090280;28;20188;-71
2022/01/28 02:49:35;;;;;;;8.20;4.60;;;1.70;99.90;;;;;;2096963;28;20167;-70
2022/01/28 02:50:43;;;;;;;9.18;5.40;;;1.70;99.90;;;;;;2096991;28;20672;-69
2022/01/28 02:51:44;;;;;;;8.70;5.35;;;1.60;99.90;;;;;;2097074;28;20168;-69
2022/01/28 02:53:00;;;;;;;8.77;5.10;;;1.60;99.90;;;;;;2096423;28;20278;-71
2022/01/28 02:54:12;;;;;;;7.65;4.93;;;1.60;99.90;;;;;;2096586;28;20266;-70
2022/01/28 02:55:14;;;;;;;8.20;4.95;;;1.70;99.90;;;;;;2096472;28;20192;-69
2022/01/28 02:56:18;;;;;;;9.77;5.18;;;1.70;99.90;;;;;;2088080;28;20213;-69
2022/01/28 02:57:24;;;;;;;10.88;5.68;;;1.60;99.90;;;;;;2090964;28;20227;-70
2022/01/28 02:58:26;;;;;;;9.35;5.07;;;1.50;99.90;;;;;;2105284;28;20196;-70
2022/01/28 02:59:27;;;;;;;7.65;5.28;;;1.40;99.90;;;;;;2097967;28;20214;-70
2022/01/28 03:00:28;;;;;;;12.07;5.47;;;1.40;99.90;;;;;;2097995;28;20199;-70
2022/01/28 03:01:28;;;;;;;9.50;5.40;;;1.50;99.90;;;;;;2098679;28;20175;-69
2022/01/28 03:02:29;;;;;;;7.77;5.00;;;1.60;99.90;;;;;;2089714;28;20184;-70
2022/01/28 03:03:30;;;;;;;10.57;5.90;;;1.60;99.90;;;;;;2089816;28;20179;-71
2022/01/28 03:05:51;;;;;;;9.73;5.05;;;1.50;99.90;;;;;;2098244;28;20164;-69
2022/01/28 03:06:52;;;;;;;10.85;4.75;;;1.60;99.90;;;;;;2097908;28;20217;-70
2022/01/28 03:07:52;;;;;;;8.87;5.07;;;1.50;99.90;;;;;;2097883;28;20229;-69
2022/01/28 03:08:58;;;;;;;8.07;4.97;;;1.50;99.90;;;;;;2097865;28;20184;-69
2022/01/28 03:12:34;;;;;;;9.82;4.30;;;1.50;99.90;;;;;;2056519;28;20265;-69
2022/01/28 03:15:01;;;;;;;7.28;4.47;;;1.50;99.90;;;;;;2098409;28;20184;-71
2022/01/28 03:16:39;;;;;;;10.30;4.75;;;1.50;99.90;;;;;;2098572;28;20221;-72
2022/01/28 03:18:50;;;;;;;9.30;4.43;;;1.60;99.90;;;;;;2098045;28;20205;-71
2022/01/28 03:19:54;;;;;;;8.23;3.95;;;1.60;99.90;;;;;;2092524;28;20199;-70
2022/01/28 03:21:06;;;;;;;5.65;3.45;;;1.70;99.90;;;;;;2098008;28;20235;-69
2022/01/28 03:22:07;;;;;;;9.30;4.95;;;1.80;99.90;;;;;;2098566;28;20159;-70
2022/01/28 03:23:08;;;;;;;9.77;3.73;;;1.70;99.90;;;;;;2098493;28;20567;-71
2022/01/28 03:24:10;;;;;;;7.07;4.27;;;1.90;99.90;;;;;;2098532;28;20183;-69
2022/01/28 03:25:11;;;;;;;6.40;3.95;;;1.90;99.90;;;;;;2097673;28;20226;-70
2022/01/28 03:26:13;;;;;;;11.60;4.32;;;1.90;99.90;;;;;;2097875;28;20222;-71
2022/01/28 03:27:24;;;;;;;7.88;4.25;;;1.80;99.90;;;;;;2097635;28;20659;-71
2022/01/28 03:28:24;;;;;;;7.82;4.50;;;1.90;99.90;;;;;;2097936;28;20172;-70
2022/01/28 03:29:25;;;;;;;9.20;4.43;;;1.90;99.90;;;;;;2097756;28;20175;-71
2022/01/28 03:30:26;;;;;;;9.17;4.87;;;1.90;99.90;;;;;;2098472;28;20191;-71
2022/01/28 03:31:27;;;;;;;6.20;3.60;;;1.80;99.90;;;;;;2097770;28;20176;-70
2022/01/28 03:32:27;;;;;;;10.87;4.70;;;1.80;99.90;;;;;;2081272;28;20512;-70
2022/01/28 03:33:28;;;;;;;6.50;4.17;;;1.90;99.90;;;;;;2081267;28;20181;-70
2022/01/28 03:34:28;;;;;;;6.10;3.43;;;2.00;99.90;;;;;;2098451;28;20182;-72
2022/01/28 03:35:31;;;;;;;8.73;3.57;;;1.80;99.90;;;;;;2098016;28;20187;-71
2022/01/28 03:36:32;;;;;;;6.18;3.50;;;1.80;99.90;;;;;;2089878;28;20577;-71
2022/01/28 03:37:32;;;;;;;6.23;4.50;;;1.80;99.90;;;;;;2089809;28;20205;-72
2022/01/28 03:38:33;;;;;;;8.30;4.23;;;1.80;99.90;;;;;;2098087;28;20173;-71
2022/01/28 03:39:34;;;;;;;7.53;4.20;;;1.90;99.90;;;;;;2097728;28;20183;-71
2022/01/28 03:40:39;;;;;;;7.15;4.78;;;1.90;99.90;;;;;;2097621;28;20195;-71
2022/01/28 03:41:39;;;;;;;8.52;4.28;;;1.90;99.90;;;;;;2098558;28;20184;-71
2022/01/28 03:42:40;;;;;;;6.73;3.97;;;1.80;99.90;;;;;;2097952;28;20225;-70
2022/01/28 03:43:41;;;;;;;8.93;4.40;;;1.90;99.90;;;;;;2097725;28;20179;-71
2022/01/28 03:44:41;;;;;;;6.70;4.07;;;1.90;99.90;;;;;;2098518;28;20176;-70
2022/01/28 03:45:42;;;;;;;6.73;4.17;;;1.90;99.90;;;;;;2097733;28;20926;-71
2022/01/28 03:46:43;;;;;;;7.20;3.70;;;1.90;99.90;;;;;;2097765;28;20652;-71
2022/01/28 03:47:43;;;;;;;6.20;3.70;;;1.90;99.90;;;;;;2098402;28;20235;-70
2022/01/28 03:48:44;;;;;;;6.23;4.20;;;1.90;99.90;;;;;;2098367;28;20180;-70
2022/01/28 03:49:45;;;;;;;6.27;4.03;;;1.90;99.90;;;;;;2098328;28;20211;-70
2022/01/28 03:50:45;;;;;;;5.77;3.80;;;1.90;99.90;;;;;;2098330;28;20241;-71
2022/01/28 03:51:46;;;;;;;7.77;3.87;;;1.90;99.90;;;;;;2098661;28;20176;-70
2022/01/28 03:52:47;;;;;;;8.47;3.83;;;2.00;99.90;;;;;;2098438;28;20174;-70
2022/01/28 03:53:48;;;;;;;7.17;3.77;;;2.00;99.90;;;;;;2098244;28;20177;-71
2022/01/28 03:54:49;;;;;;;9.75;4.35;;;2.00;99.90;;;;;;2097449;28;20259;-71
2022/01/28 03:55:52;;;;;;;5.30;3.87;;;2.00;99.90;;;;;;2097680;28;20607;-70
2022/01/28 03:56:53;;;;;;;5.72;3.83;;;2.10;99.90;;;;;;2098957;28;20188;-71
2022/01/28 03:57:54;;;;;;;8.97;4.03;;;2.10;99.90;;;;;;2089790;28;20184;-70
2022/01/28 03:58:54;;;;;;;5.47;3.40;;;2.20;99.90;;;;;;2097551;28;20184;-71
2022/01/28 03:59:55;;;;;;;6.97;4.00;;;2.10;99.90;;;;;;2106599;28;20205;-71
2022/01/28 04:00:57;;;;;;;7.83;4.10;;;2.10;99.90;;;;;;2106631;28;20203;-70
2022/01/28 04:01:58;;;;;;;7.68;3.65;;;2.00;99.90;;;;;;2106017;28;20180;-71
2022/01/28 04:03:23;;;;;;;9.40;4.17;;;2.10;99.90;;;;;;2106065;28;20177;-69
2022/01/28 04:11:27;;;;;;;8.50;4.55;;;1.70;99.90;;;;;;2106513;28;20215;-70
2022/01/28 04:12:02;;;;;;;6.63;3.30;;;1.70;99.90;;;;;;2104042;28;20645;-70
2022/01/28 04:13:05;;;;;;;8.38;3.70;;;1.70;99.90;;;;;;2097716;28;20268;-70
2022/01/28 04:14:11;;;;;;;5.80;3.42;;;1.60;99.90;;;;;;2098079;28;20212;-71
2022/01/28 04:17:18;;;;;;;5.45;3.65;;;1.60;99.90;;;;;;2097565;28;20171;-70
2022/01/28 04:17:51;;;;;;;10.32;3.78;;;1.70;99.90;;;;;;2097356;28;20289;-70
2022/01/28 04:18:52;;;;;;;6.63;4.00;;;1.80;99.90;;;;;;2100365;28;20640;-70
2022/01/28 04:19:53;;;;;;;7.30;4.00;;;1.80;99.90;;;;;;2097606;28;20181;-70
2022/01/28 04:20:54;;;;;;;7.88;3.95;;;1.90;99.90;;;;;;2097440;28;20242;-71
2022/01/28 04:21:55;;;;;;;9.13;4.50;;;1.80;99.90;;;;;;2097619;28;20238;-69
2022/01/28 04:22:55;;;;;;;7.73;3.60;;;1.80;99.90;;;;;;2098337;28;20279;-69
2022/01/28 04:23:56;;;;;;;8.07;4.33;;;1.70;99.90;;;;;;2097307;28;20185;-70
2022/01/28 04:24:57;;;;;;;6.47;4.13;;;1.80;99.90;;;;;;2097336;28;20191;-70
2022/01/28 04:25:58;;;;;;;12.73;5.07;;;1.80;99.90;;;;;;2105763;28;20171;-70
2022/01/28 04:26:58;;;;;;;6.60;4.47;;;1.90;99.90;;;;;;2098094;28;20225;-70
2022/01/28 04:27:59;;;;;;;8.10;5.10;;;1.80;99.90;;;;;;2097791;28;20183;-70
2022/01/28 04:29:00;;;;;;;11.87;5.67;;;1.80;99.90;;;;;;2097278;28;20711;-70
2022/01/28 04:30:01;;;;;;;9.23;5.00;;;1.70;99.90;;;;;;2097396;28;20664;-70
2022/01/28 04:31:01;;;;;;;8.77;4.85;;;1.70;99.90;;;;;;2098446;28;20568;-70
2022/01/28 04:32:03;;;;;;;12.57;4.80;;;1.70;99.90;;;;;;2097836;28;20192;-70
2022/01/28 04:33:04;;;;;;;8.68;4.95;;;1.70;99.90;;;;;;2097482;28;20180;-69
2022/01/28 04:34:04;;;;;;;8.63;4.50;;;1.70;99.90;;;;;;2097318;28;20278;-70
2022/01/28 04:35:06;;;;;;;7.50;4.20;;;1.70;99.90;;;;;;2097887;28;20271;-70
2022/01/28 04:36:10;;;;;;;9.50;4.72;;;1.60;99.90;;;;;;2097295;28;20611;-70
2022/01/28 04:37:19;;;;;;;10.02;5.03;;;1.60;99.90;;;;;;2089595;28;20266;-69
2022/01/28 04:38:40;;;;;;;8.30;4.38;;;1.70;99.90;;;;;;2082486;28;20593;-71
2022/01/28 04:40:06;;;;;;;7.35;4.30;;;1.60;99.90;;;;;;2093251;28;20175;-70
2022/01/28 04:41:39;;;;;;;11.73;5.30;;;1.60;99.90;;;;;;2098195;28;20156;-70
2022/01/28 04:43:36;;;;;;;9.67;4.13;;;1.70;99.90;;;;;;2097883;28;20194;-71
2022/01/28 04:45:52;;;;;;;7.90;4.40;;;1.60;99.90;;;;;;2097506;28;20237;-70
2022/01/28 04:47:13;;;;;;;8.95;4.60;;;1.60;99.90;;;;;;2091118;28;20192;-71
2022/01/28 04:48:34;;;;;;;10.85;4.72;;;1.60;99.90;;;;;;2097636;28;20164;-70
2022/01/28 04:53:24;;;;;;;9.35;4.40;;;1.70;99.90;;;;;;2097542;28;20171;-70
2022/01/28 04:54:48;;;;;;;7.88;5.03;;;1.60;99.90;;;;;;2098000;28;20595;-71
2022/01/28 04:58:08;;;;;;;5.97;3.95;;;1.80;99.90;;;;;;2094731;28;20195;-71
2022/01/28 05:02:16;;;;;;;10.43;4.40;;;1.60;99.90;;;;;;2098111;28;20198;-70
2022/01/28 05:03:38;;;;;;;7.20;4.35;;;1.60;99.90;;;;;;2089330;28;20279;-70
2022/01/28 05:09:07;;;;;;;8.02;4.60;;;1.60;99.90;;;;;;2097402;28;20206;-70
2022/01/28 05:10:52;;;;;;;8.15;4.47;;;1.60;99.90;;;;;;2097910;28;20203;-69
2022/01/28 05:15:50;;;;;;;7.60;4.22;;;1.70;99.90;;;;;;2097304;28;20168;-70
2022/01/28 05:27:17;;;;;;;5.40;3.72;;;1.70;99.90;;;;;;2097587;28;20176;-69
2022/01/28 05:28:22;;;;;;;7.22;4.53;;;1.70;99.90;;;;;;2097486;28;20671;-70
2022/01/28 05:29:23;;;;;;;7.43;5.13;;;1.70;99.90;;;;;;2097459;28;20172;-70
2022/01/28 05:30:23;;;;;;;8.20;3.97;;;1.70;99.90;;;;;;2096746;28;20186;-71
2022/01/28 05:31:24;;;;;;;10.13;4.80;;;1.70;99.90;;;;;;2088554;28;20178;-70
2022/01/28 05:32:25;;;;;;;8.80;4.80;;;1.70;99.90;;;;;;2080228;28;20186;-70
2022/01/28 05:33:25;;;;;;;6.43;4.00;;;1.80;99.90;;;;;;2088599;28;20181;-70
2022/01/28 05:34:27;;;;;;;7.90;4.83;;;1.80;99.90;;;;;;2097296;28;20187;-70
2022/01/28 05:35:30;;;;;;;7.32;3.97;;;1.80;99.90;;;;;;2097384;28;20205;-70
2022/01/28 05:36:31;;;;;;;6.85;4.50;;;1.80;99.90;;;;;;2097399;28;20214;-70
2022/01/28 05:37:31;;;;;;;9.03;5.27;;;1.80;99.90;;;;;;2097297;28;20203;-69
2022/01/28 05:38:32;;;;;;;6.37;4.33;;;1.80;99.90;;;;;;2097445;28;20549;-70
2022/01/28 05:39:33;;;;;;;7.87;4.27;;;1.80;99.90;;;;;;2097290;28;20205;-70
2022/01/28 05:40:34;;;;;;;7.47;4.57;;;1.80;99.90;;;;;;2096670;28;20192;-69
2022/01/28 05:41:35;;;;;;;7.80;4.50;;;1.80;99.90;;;;;;2088276;28;20184;-71
2022/01/28 05:42:35;;;;;;;7.80;4.50;;;1.80;99.90;;;;;;2088528;28;20657;-70
2022/01/28 05:43:36;;;;;;;7.57;4.40;;;1.80;99.90;;;;;;2096839;28;20172;-71
2022/01/28 05:44:37;;;;;;;9.57;5.40;;;1.70;99.90;;;;;;2096612;28;20746;-70
2022/01/28 05:45:38;;;;;;;8.77;5.30;;;1.70;99.90;;;;;;2088334;28;20254;-69
2022/01/28 05:46:38;;;;;;;10.67;5.00;;;1.80;99.90;;;;;;2088423;28;20184;-71
2022/01/28 05:47:39;;;;;;;8.20;4.67;;;1.80;99.90;;;;;;2096631;28;20270;-70
2022/01/28 05:48:40;;;;;;;12.40;5.87;;;1.70;99.90;;;;;;2097329;28;20188;-70
2022/01/28 05:49:42;;;;;;;12.07;5.27;;;1.70;99.90;;;;;;2096633;28;20730;-71
2022/01/28 05:50:43;;;;;;;8.75;5.32;;;1.70;99.90;;;;;;2080242;28;20308;-70
2022/01/28 05:51:43;;;;;;;11.37;5.43;;;1.70;99.90;;;;;;2088330;28;20196;-70
2022/01/28 05:52:44;;;;;;;11.70;4.80;;;1.70;99.90;;;;;;2096511;28;20185;-70
2022/01/28 05:53:45;;;;;;;8.40;4.40;;;1.70;99.90;;;;;;2095752;28;20180;-71
2022/01/28 05:54:45;;;;;;;9.47;4.87;;;1.60;99.90;;;;;;2096574;28;20542;-70
2022/01/28 05:55:46;;;;;;;8.73;4.57;;;1.60;99.90;;;;;;2095350;28;20198;-70
2022/01/28 05:56:47;;;;;;;9.97;5.00;;;1.60;99.90;;;;;;2093777;28;20190;-71
2022/01/28 05:57:47;;;;;;;8.00;5.30;;;1.50;99.90;;;;;;2088281;28;20606;-70
2022/01/28 05:58:48;;;;;;;11.73;5.47;;;1.50;99.90;;;;;;2088977;28;20185;-70
2022/01/28 05:59:49;;;;;;;10.53;5.63;;;1.50;99.90;;;;;;2088314;28;20234;-71
2022/01/28 06:00:49;;;;;;;10.87;6.30;;;1.50;99.90;;;;;;2092907;28;20211;-70
2022/01/28 06:01:50;;;;;;;13.30;6.63;;;1.60;99.90;;;;;;2096539;28;20198;-70
2022/01/28 06:02:51;;;;;;;13.03;6.00;;;1.60;99.90;;;;;;2096332;28;20687;-71
2022/01/28 06:03:52;;;;;;;11.83;5.43;;;1.50;99.90;;;;;;2096622;28;20215;-70
2022/01/28 06:04:53;;;;;;;9.23;5.68;;;1.50;99.90;;;;;;2091486;28;20185;-70
2022/01/28 06:05:53;;;;;;;12.10;6.10;;;1.50;99.90;;;;;;2088419;28;20234;-70
2022/01/28 06:06:54;;;;;;;13.33;5.90;;;1.60;99.90;;;;;;2096642;28;20179;-70
2022/01/28 06:07:55;;;;;;;9.33;5.37;;;1.70;99.90;;;;;;2088128;28;20181;-70
2022/01/28 06:08:56;;;;;;;7.30;3.65;;;1.70;99.90;;;;;;2080287;28;20240;-70
2022/01/28 06:09:57;;;;;;;8.20;4.85;;;1.60;99.90;;;;;;2088385;28;20192;-70
2022/01/28 06:10:57;;;;;;;6.77;4.50;;;1.50;99.90;;;;;;2088320;28;20200;-70
2022/01/28 06:11:58;;;;;;;7.50;4.03;;;1.40;99.90;;;;;;2089523;28;20177;-70
2022/01/28 06:12:59;;;;;;;8.70;4.50;;;1.30;99.90;;;;;;2096550;28;20187;-70
2022/01/28 06:13:59;;;;;;;8.57;4.60;;;1.40;99.90;;;;;;2096552;28;20180;-70
2022/01/28 06:15:00;;;;;;;7.67;4.37;;;1.50;99.90;;;;;;2088874;28;20183;-70
2022/01/28 06:16:01;;;;;;;8.70;4.90;;;1.40;99.90;;;;;;2088975;28;20978;-70
2022/01/28 06:17:01;;;;;;;8.50;5.10;;;1.40;99.90;;;;;;2088908;28;20557;-70
2022/01/28 06:18:02;;;;;;;7.93;5.03;;;1.40;99.90;;;;;;2088488;28;20185;-70
2022/01/28 06:19:03;;;;;;;7.03;4.37;;;1.40;99.90;;;;;;2088181;28;20234;-70
2022/01/28 06:20:08;;;;;;;6.27;3.87;;;1.40;99.90;;;;;;2089519;28;20184;-71
2022/01/28 06:21:09;;;;;;;6.53;3.60;;;1.40;99.90;;;;;;2088151;28;20547;-70
2022/01/28 06:22:10;;;;;;;6.90;3.97;;;1.50;99.90;;;;;;2096646;28;20245;-70
2022/01/28 06:23:11;;;;;;;7.10;3.93;;;1.50;99.90;;;;;;2096876;28;20655;-70
2022/01/28 06:24:12;;;;;;;6.93;3.80;;;1.40;99.90;;;;;;2097201;28;20176;-71
2022/01/28 06:25:13;;;;;;;6.53;3.40;;;1.40;99.90;;;;;;2096453;28;20190;-71
2022/01/28 06:26:14;;;;;;;8.85;3.90;;;1.40;99.90;;;;;;2096544;28;20263;-71
2022/01/28 06:27:15;;;;;;;4.80;3.30;;;1.40;99.90;;;;;;2097141;28;20557;-70
2022/01/28 06:28:15;;;;;;;6.63;3.20;;;1.40;99.90;;;;;;2097280;28;20185;-70
2022/01/28 06:29:16;;;;;;;5.27;3.37;;;1.30;99.90;;;;;;2096304;28;20179;-70
2022/01/28 06:30:17;;;;;;;6.07;3.70;;;1.40;99.90;;;;;;2088081;28;20172;-69
2022/01/28 06:31:18;;;;;;;8.33;4.63;;;1.30;99.90;;;;;;2095857;28;20279;-71
2022/01/28 06:32:18;;;;;;;6.40;3.93;;;1.30;99.90;;;;;;2097121;28;20414;-70
2022/01/28 06:33:19;;;;;;;8.00;4.07;;;1.30;99.90;;;;;;2088132;28;20184;-69
2022/01/28 06:34:19;;;;;;;6.03;4.10;;;1.30;99.90;;;;;;2088067;28;20201;-69
2022/01/28 06:35:20;;;;;;;6.73;4.10;;;1.40;99.90;;;;;;2104772;28;20182;-71
2022/01/28 06:36:21;;;;;;;9.07;4.47;;;1.40;99.90;;;;;;2096452;28;20269;-71
2022/01/28 06:37:21;;;;;;;6.93;4.37;;;1.50;99.90;;;;;;2096342;28;20203;-70
2022/01/28 06:38:22;;;;;;;7.67;3.90;;;1.50;99.90;;;;;;2097277;28;20675;-70
2022/01/28 06:39:23;;;;;;;7.97;4.70;;;1.50;99.90;;;;;;2096947;28;20683;-70
2022/01/28 06:40:23;;;;;;;8.47;4.60;;;1.50;99.90;;;;;;2096881;28;20739;-70
2022/01/28 06:41:24;;;;;;;7.03;3.77;;;1.50;99.90;;;;;;2088043;28;20290;-70
2022/01/28 06:42:25;;;;;;;9.57;4.33;;;1.50;99.90;;;;;;2079974;28;20173;-71
2022/01/28 06:43:25;;;;;;;6.73;4.23;;;1.40;99.90;;;;;;2096415;28;20176;-70
2022/01/28 06:44:26;;;;;;;4.97;3.90;;;1.40;99.90;;;;;;2096228;28;20218;-70
2022/01/28 06:45:27;;;;;;;7.00;4.10;;;1.40;99.90;;;;;;2096454;28;20262;-70
2022/01/28 06:46:28;;;;;;;5.67;3.77;;;1.30;99.90;;;;;;2096382;28;20254;-70
2022/01/28 06:47:28;;;;;;;5.93;3.30;;;1.40;99.90;;;;;;2096365;28;20172;-71
2022/01/28 06:48:29;;;;;;;10.23;4.73;;;1.30;99.90;;;;;;2096444;28;20649;-70
2022/01/28 06:49:31;;;;;;;10.27;4.10;;;1.30;99.90;;;;;;2095865;28;20186;-70